createdAt,value
2023-02-07T00:01:58.304Z,42.80
2023-02-07T00:04:27.078Z,60.60
2023-02-07T00:06:55.647Z,57.90
2023-02-07T00:09:24.788Z,60.40
2023-02-07T00:11:53.789Z,45.00
2023-02-07T00:14:22.387Z,58.30
2023-02-07T00:16:51.242Z,58.10
2023-02-07T00:19:20.143Z,56.30
2023-02-07T00:21:48.997Z,58.40
2023-02-07T00:24:18.243Z,45.40
2023-02-07T00:26:47.751Z,42.80
2023-02-07T00:29:16.628Z,61.40
2023-02-07T00:31:47.053Z,62.70
2023-02-07T00:34:16.007Z,63.00
2023-02-07T00:36:44.870Z,60.60
2023-02-07T00:39:16.313Z,61.50
2023-02-07T00:41:46.270Z,58.20
2023-02-07T00:44:15.501Z,65.90
2023-02-07T00:46:45.415Z,63.70
2023-02-07T00:49:14.187Z,46.50
2023-02-07T00:51:43.177Z,65.30
2023-02-07T00:54:12.324Z,62.50
2023-02-07T00:56:40.990Z,46.30
2023-02-07T00:59:09.855Z,52.90
2023-02-07T01:01:39.170Z,57.80
2023-02-07T01:04:07.869Z,64.90
2023-02-07T01:06:37.381Z,69.00
2023-02-07T01:09:06.985Z,62.80
2023-02-07T01:14:04.768Z,54.80
2023-02-07T01:16:36.958Z,45.50
2023-02-07T01:19:09.116Z,53.60
2023-02-07T01:21:38.543Z,55.30
2023-02-07T01:24:08.770Z,51.90
2023-02-07T01:26:39.116Z,47.50
2023-02-07T01:29:08.692Z,44.00
2023-02-07T01:31:37.451Z,40.70
2023-02-07T01:34:06.734Z,29.40
2023-02-07T01:36:35.445Z,29.50
2023-02-07T01:39:05.353Z,26.20
2023-02-07T01:41:36.768Z,36.60
2023-02-07T01:44:09.089Z,35.30
2023-02-07T01:46:38.916Z,36.10
2023-02-07T01:49:13.904Z,37.60
2023-02-07T01:51:50.112Z,35.30
2023-02-07T01:54:20.651Z,39.20
2023-02-07T01:56:56.798Z,40.80
2023-02-07T01:59:26.884Z,44.20
2023-02-07T02:04:24.498Z,37.70
2023-02-07T02:06:54.153Z,32.40
2023-02-07T02:09:23.149Z,38.90
2023-02-07T02:12:10.884Z,38.70
2023-02-07T02:15:08.212Z,39.40
2023-02-07T02:18:08.537Z,38.90
2023-02-07T02:21:05.524Z,38.60
2023-02-07T02:23:34.574Z,40.20
2023-02-07T02:28:51.823Z,34.50
2023-02-07T02:31:58.213Z,40.30
2023-02-07T02:34:50.735Z,36.50
2023-02-07T02:37:40.722Z,36.50
2023-02-07T02:40:33.679Z,36.80
2023-02-07T02:43:14.188Z,37.80
2023-02-07T02:45:50.117Z,38.90
2023-02-07T02:48:19.784Z,38.50
2023-02-07T02:50:49.803Z,38.70
2023-02-07T02:53:18.623Z,39.60
2023-02-07T02:56:25.330Z,32.80
2023-02-07T02:59:00.022Z,36.10
2023-02-07T03:01:51.536Z,35.40
2023-02-07T03:04:20.753Z,36.20
2023-02-07T03:07:12.783Z,35.30
2023-02-07T03:10:40.050Z,35.70
2023-02-07T03:13:31.793Z,34.50
2023-02-07T03:16:23.978Z,34.30
2023-02-07T03:18:59.283Z,32.60
2023-02-07T03:21:44.142Z,34.00
2023-02-07T03:24:27.213Z,34.20
2023-02-07T03:27:00.127Z,33.80
2023-02-07T03:29:31.165Z,34.80
2023-02-07T03:32:05.167Z,35.00
2023-02-07T03:34:44.018Z,42.10
2023-02-07T03:37:22.717Z,43.60
2023-02-07T03:39:52.228Z,42.00
2023-02-07T03:42:53.367Z,36.20
2023-02-07T03:45:23.098Z,34.70
2023-02-07T03:47:51.601Z,33.60
2023-02-07T03:50:20.318Z,34.50
2023-02-07T03:52:49.399Z,34.30
2023-02-07T03:55:19.274Z,25.40
2023-02-07T03:57:48.263Z,34.60
2023-02-07T04:00:17.712Z,36.70
2023-02-07T04:02:46.394Z,29.30
2023-02-07T04:05:16.082Z,38.70
2023-02-07T04:07:45.028Z,44.00
2023-02-07T04:10:13.595Z,37.20
2023-02-07T04:12:42.854Z,36.10
2023-02-07T04:15:11.856Z,36.30
2023-02-07T04:17:40.546Z,35.90
2023-02-07T04:20:10.845Z,34.90
2023-02-07T04:22:39.988Z,33.50
2023-02-07T04:25:08.789Z,31.50
2023-02-07T04:27:37.721Z,33.20
2023-02-07T04:30:07.714Z,33.40
2023-02-07T04:35:05.018Z,35.50
2023-02-07T04:37:34.045Z,35.20
2023-02-07T04:40:02.592Z,31.20
2023-02-07T04:42:31.687Z,32.90
2023-02-07T04:45:00.818Z,31.90
2023-02-07T04:47:29.353Z,36.10
2023-02-07T04:49:58.153Z,30.00
2023-02-07T04:52:27.080Z,28.60
2023-02-07T04:54:55.629Z,31.30
2023-02-07T04:57:24.627Z,31.70
2023-02-07T04:59:53.806Z,32.10
2023-02-07T05:02:22.444Z,29.10
2023-02-07T05:04:51.674Z,30.60
2023-02-07T05:07:20.773Z,29.70
2023-02-07T05:09:49.856Z,34.60
2023-02-07T05:12:18.708Z,29.70
2023-02-07T05:14:47.580Z,31.00
2023-02-07T05:17:16.709Z,31.30
2023-02-07T05:19:45.712Z,26.70
2023-02-07T05:22:14.492Z,29.60
2023-02-07T05:24:44.170Z,31.90
2023-02-07T05:27:12.861Z,30.90
2023-02-07T05:29:41.701Z,31.80
2023-02-07T05:32:33.280Z,32.70
2023-02-07T05:35:02.098Z,31.40
2023-02-07T05:37:31.160Z,33.10
2023-02-07T05:40:00.073Z,30.80
2023-02-07T05:42:29.384Z,22.90
2023-02-07T05:44:57.910Z,29.90
2023-02-07T05:47:26.915Z,29.90
2023-02-07T05:49:56.037Z,29.00
2023-02-07T05:52:24.539Z,29.40
2023-02-07T05:54:53.621Z,27.90
2023-02-07T05:57:22.966Z,28.60
2023-02-07T05:59:51.648Z,33.10
2023-02-07T06:02:20.396Z,30.40
2023-02-07T06:04:49.551Z,27.90
2023-02-07T06:07:18.224Z,27.90
2023-02-07T06:09:47.254Z,29.50
2023-02-07T06:12:16.528Z,22.70
2023-02-07T06:14:45.277Z,28.20
2023-02-07T06:17:14.128Z,27.40
2023-02-07T06:19:43.081Z,27.30
2023-02-07T06:22:12.199Z,26.70
2023-02-07T06:24:40.843Z,27.60
2023-02-07T06:27:10.323Z,27.40
2023-02-07T06:29:39.320Z,28.50
2023-02-07T06:32:08.214Z,29.40
2023-02-07T06:34:37.158Z,27.70
2023-02-07T06:37:06.232Z,27.00
2023-02-07T06:39:37.668Z,29.10
2023-02-07T06:42:06.389Z,27.20
2023-02-07T06:44:35.203Z,28.50
2023-02-07T06:47:04.748Z,28.20
2023-02-07T06:52:02.185Z,53.20
2023-02-07T06:54:31.227Z,67.00
2023-02-07T06:57:03.598Z,78.80
2023-02-07T06:59:32.687Z,77.80
2023-02-07T07:02:01.413Z,109.70
2023-02-07T07:04:31.087Z,68.20
2023-02-07T07:06:59.780Z,83.80
2023-02-07T07:09:28.378Z,89.20
2023-02-07T07:11:57.275Z,91.40
2023-02-07T07:14:26.161Z,97.40
2023-02-07T07:16:56.885Z,95.60
2023-02-07T07:19:25.924Z,97.70
2023-02-07T07:21:55.885Z,99.70
2023-02-07T07:24:24.912Z,110.00
2023-02-07T07:26:54.358Z,132.00
2023-02-07T07:29:23.798Z,128.60
2023-02-07T07:31:52.689Z,99.00
2023-02-07T07:34:21.473Z,85.70
2023-02-07T07:36:50.653Z,86.50
2023-02-07T07:39:21.238Z,78.30
2023-02-07T07:41:50.193Z,86.00
2023-02-07T07:44:21.859Z,85.30
2023-02-07T07:46:50.808Z,56.60
2023-02-07T07:49:19.749Z,68.20
2023-02-07T07:51:48.814Z,62.10
2023-02-07T07:54:17.379Z,56.70
2023-02-07T07:56:46.927Z,57.30
2023-02-07T07:59:23.965Z,51.10
2023-02-07T08:01:52.809Z,47.00
2023-02-07T08:04:22.274Z,54.90
2023-02-07T08:06:50.912Z,58.80
2023-02-07T08:09:19.788Z,85.30
2023-02-07T08:11:49.142Z,60.40
2023-02-07T08:14:18.320Z,63.00
2023-02-07T08:16:47.244Z,53.80
2023-02-07T08:19:26.638Z,63.00
2023-02-07T08:22:02.142Z,66.10
2023-02-07T08:24:31.261Z,44.10
2023-02-07T08:26:59.972Z,55.90
2023-02-07T08:29:29.088Z,45.40
2023-02-07T08:31:58.144Z,52.40
2023-02-07T08:34:29.151Z,45.70
2023-02-07T08:36:57.756Z,57.90
2023-02-07T08:39:26.576Z,52.70
2023-02-07T08:41:55.362Z,45.40
2023-02-07T08:44:23.970Z,50.40
2023-02-07T08:46:52.822Z,50.80
2023-02-07T08:49:21.634Z,52.80
2023-02-07T08:51:50.357Z,62.40
2023-02-07T08:54:20.000Z,62.40
2023-02-07T08:56:49.193Z,82.40
2023-02-07T08:59:17.725Z,60.00
2023-02-07T09:01:46.545Z,66.40
2023-02-07T09:04:15.634Z,80.50
2023-02-07T09:06:44.248Z,60.50
2023-02-07T09:09:13.197Z,57.80
2023-02-07T09:11:42.121Z,52.00
2023-02-07T09:14:10.633Z,54.70
2023-02-07T09:16:39.367Z,56.90
2023-02-07T09:19:08.283Z,51.90
2023-02-07T09:21:37.857Z,49.50
2023-02-07T09:24:06.723Z,51.80
2023-02-07T09:26:36.614Z,55.90
2023-02-07T09:29:06.569Z,53.90
2023-02-07T09:31:35.335Z,52.30
2023-02-07T09:34:05.584Z,59.50
2023-02-07T09:36:34.777Z,52.20
2023-02-07T09:39:04.985Z,38.90
2023-02-07T09:41:41.410Z,48.10
2023-02-07T09:44:28.264Z,48.10
2023-02-07T09:47:05.831Z,49.50
2023-02-07T09:49:44.675Z,45.30
2023-02-07T09:52:34.063Z,42.90
2023-02-07T09:55:08.627Z,48.20
2023-02-07T09:57:44.625Z,44.60
2023-02-07T10:00:27.525Z,46.30
2023-02-07T10:03:23.552Z,46.70
2023-02-07T10:06:29.095Z,43.40
2023-02-07T10:09:14.285Z,44.50
2023-02-07T10:12:12.691Z,44.90
2023-02-07T10:14:44.660Z,36.70
2023-02-07T10:17:32.491Z,34.70
2023-02-07T10:20:19.789Z,40.50
2023-02-07T10:23:02.621Z,34.40
2023-02-07T10:25:48.807Z,31.10
2023-02-07T10:28:17.923Z,32.20
2023-02-07T10:31:12.817Z,31.60
2023-02-07T10:33:47.707Z,29.10
2023-02-07T10:36:17.568Z,29.60
2023-02-07T10:38:48.832Z,31.60
2023-02-07T10:41:36.042Z,31.50
2023-02-07T10:44:14.216Z,30.30
2023-02-07T10:46:50.987Z,32.80
2023-02-07T10:49:26.174Z,25.00
2023-02-07T10:52:03.453Z,28.10
2023-02-07T10:54:57.254Z,26.40
2023-02-07T10:57:28.567Z,28.30
2023-02-07T11:00:11.108Z,33.10
2023-02-07T11:02:50.465Z,35.40
2023-02-07T11:05:21.568Z,29.90
2023-02-07T11:08:04.589Z,24.70
2023-02-07T11:10:38.148Z,31.20
2023-02-07T11:13:18.582Z,28.00
2023-02-07T11:16:08.211Z,30.00
2023-02-07T11:18:45.668Z,28.50
2023-02-07T11:22:33.466Z,31.30
2023-02-07T11:25:16.020Z,28.70
2023-02-07T11:27:47.719Z,28.90
2023-02-07T11:30:20.836Z,28.20
2023-02-07T11:33:01.583Z,31.40
2023-02-07T11:35:30.728Z,34.40
2023-02-07T11:38:05.786Z,31.90
2023-02-07T11:40:47.687Z,30.90
2023-02-07T11:43:22.413Z,30.10
2023-02-07T11:45:58.643Z,26.50
2023-02-07T11:48:35.420Z,31.60
2023-02-07T11:51:10.193Z,28.30
2023-02-07T11:53:51.510Z,26.60
2023-02-07T11:56:33.213Z,24.10
2023-02-07T11:59:06.867Z,26.10
2023-02-07T12:01:39.314Z,26.90
2023-02-07T12:04:20.778Z,27.50
2023-02-07T12:07:03.568Z,33.40
2023-02-07T12:09:47.181Z,31.60
2023-02-07T12:12:36.569Z,44.80
2023-02-07T12:15:28.986Z,21.90
2023-02-07T12:18:15.511Z,27.20
2023-02-07T12:20:59.597Z,26.00
2023-02-07T12:23:44.036Z,23.90
2023-02-07T12:26:27.872Z,23.50
2023-02-07T12:29:23.454Z,26.20
2023-02-07T12:31:58.256Z,34.00
2023-02-07T12:34:54.919Z,31.00
2023-02-07T12:37:40.523Z,24.50
2023-02-07T12:40:09.442Z,28.70
2023-02-07T12:42:45.797Z,35.40
2023-02-07T12:45:24.096Z,29.70
2023-02-07T12:48:36.309Z,33.50
2023-02-07T12:51:21.281Z,29.00
2023-02-07T12:53:55.838Z,27.30
2023-02-07T12:56:53.042Z,30.10
2023-02-07T12:59:46.442Z,32.10
2023-02-07T13:02:34.007Z,25.20
2023-02-07T13:05:33.810Z,25.40
2023-02-07T13:10:51.508Z,21.00
2023-02-07T13:14:05.749Z,21.60
2023-02-07T13:16:40.917Z,22.10
2023-02-07T13:19:28.961Z,23.50
2023-02-07T13:22:19.351Z,29.70
2023-02-07T13:24:49.591Z,24.80
2023-02-07T13:29:51.810Z,24.70
2023-02-07T13:32:28.314Z,24.30
2023-02-07T13:35:14.162Z,25.70
2023-02-07T13:37:48.939Z,25.90
2023-02-07T13:40:28.220Z,28.80
2023-02-07T13:43:23.910Z,26.30
2023-02-07T13:46:13.218Z,24.80
2023-02-07T13:48:52.870Z,23.90
2023-02-07T13:51:59.650Z,18.30
2023-02-07T13:54:31.303Z,25.70
2023-02-07T13:57:20.282Z,29.60
2023-02-07T14:00:17.659Z,25.30
2023-02-07T14:02:51.031Z,29.80
2023-02-07T14:05:28.308Z,38.90
2023-02-07T14:08:03.451Z,34.00
2023-02-07T14:10:56.045Z,29.10
2023-02-07T14:13:30.172Z,28.00
2023-02-07T14:16:00.863Z,29.00
2023-02-07T14:18:45.191Z,30.60
2023-02-07T14:21:22.532Z,25.00
2023-02-07T14:24:09.448Z,30.30
2023-02-07T14:26:41.161Z,31.00
2023-02-07T14:29:25.072Z,35.60
2023-02-07T14:32:01.234Z,32.90
2023-02-07T14:35:02.015Z,30.30
2023-02-07T14:37:49.509Z,27.70
2023-02-07T14:40:32.633Z,31.00
2023-02-07T14:45:36.651Z,31.10
2023-02-07T14:48:08.324Z,31.10
2023-02-07T14:50:37.653Z,31.40
2023-02-07T14:53:06.893Z,36.80
2023-02-07T14:55:43.258Z,24.50
2023-02-07T14:58:33.494Z,40.60
2023-02-07T15:01:03.013Z,28.30
2023-02-07T15:03:34.020Z,47.10
2023-02-07T15:06:21.044Z,36.90
2023-02-07T15:09:00.129Z,33.10
2023-02-07T15:11:32.510Z,37.80
2023-02-07T15:14:19.576Z,39.70
2023-02-07T15:16:48.793Z,32.90
2023-02-07T15:19:38.795Z,49.10
2023-02-07T15:22:23.994Z,40.30
2023-02-07T15:24:59.180Z,35.70
2023-02-07T15:28:01.947Z,33.70
2023-02-07T15:30:33.608Z,28.40
2023-02-07T15:33:11.074Z,32.90
2023-02-07T15:35:40.084Z,28.00
2023-02-07T15:38:22.895Z,28.20
2023-02-07T15:40:53.498Z,26.50
2023-02-07T15:43:30.101Z,27.70
2023-02-07T15:46:05.360Z,31.40
2023-02-07T15:48:46.054Z,32.30
2023-02-07T15:51:17.287Z,30.00
2023-02-07T15:53:51.207Z,32.20
2023-02-07T15:56:20.259Z,36.70
2023-02-07T15:58:50.063Z,40.20
2023-02-07T16:01:30.694Z,33.70
2023-02-07T16:04:00.334Z,35.40
2023-02-07T16:06:31.323Z,35.10
2023-02-07T16:09:02.294Z,38.10
2023-02-07T16:11:31.105Z,41.20
2023-02-07T16:14:19.621Z,40.30
2023-02-07T16:16:54.160Z,43.70
2023-02-07T16:19:31.513Z,43.80
2023-02-07T16:22:05.399Z,49.90
2023-02-07T16:24:37.701Z,50.00
2023-02-07T16:27:07.796Z,62.40
2023-02-07T16:32:05.427Z,50.10
2023-02-07T16:34:34.440Z,89.70
2023-02-07T16:37:03.429Z,76.60
2023-02-07T16:39:32.195Z,74.70
2023-02-07T16:42:13.389Z,60.70
2023-02-07T16:44:42.150Z,68.10
2023-02-07T16:47:13.854Z,71.60
2023-02-07T16:49:45.539Z,89.10
2023-02-07T16:52:15.291Z,84.30
2023-02-07T16:54:44.966Z,97.40
2023-02-07T17:02:15.397Z,83.10
2023-02-07T17:04:44.948Z,75.30
2023-02-07T17:07:14.088Z,73.90
2023-02-07T17:09:43.403Z,93.00
2023-02-07T17:12:15.218Z,104.80
2023-02-07T17:14:44.544Z,97.50
2023-02-07T17:17:13.950Z,92.30
2023-02-07T17:19:43.448Z,94.20
2023-02-07T17:22:15.655Z,96.80
2023-02-07T17:24:48.274Z,97.10
2023-02-07T17:27:17.614Z,96.70
2023-02-07T17:29:46.650Z,70.50
2023-02-07T17:32:15.284Z,98.10
2023-02-07T17:34:44.099Z,96.20
2023-02-07T17:37:13.344Z,81.30
2023-02-07T17:39:42.439Z,91.30
2023-02-07T17:42:11.129Z,73.40
2023-02-07T17:44:41.496Z,82.30
2023-02-07T17:49:39.254Z,95.80
2023-02-07T17:52:09.385Z,89.10
2023-02-07T17:54:38.286Z,112.30
2023-02-07T17:57:07.073Z,84.50
2023-02-07T17:59:35.958Z,115.20
2023-02-07T18:02:05.020Z,125.80
2023-02-07T18:04:48.396Z,117.30
2023-02-07T18:07:37.536Z,118.60
2023-02-07T18:10:31.045Z,121.10
2023-02-07T18:13:18.712Z,116.30
2023-02-07T18:16:15.782Z,114.70
2023-02-07T18:19:03.011Z,125.50
2023-02-07T18:24:34.291Z,102.70
2023-02-07T18:27:24.233Z,106.10
2023-02-07T18:30:17.247Z,107.50
2023-02-07T18:33:13.492Z,109.00
2023-02-07T18:36:08.961Z,99.80
2023-02-07T18:39:04.457Z,103.80
2023-02-07T18:41:49.922Z,106.10
2023-02-07T18:44:29.379Z,104.70
2023-02-07T18:49:35.042Z,108.00
2023-02-07T18:52:04.562Z,118.00
2023-02-07T18:54:33.371Z,109.00
2023-02-07T18:57:05.132Z,101.80
2023-02-07T18:59:35.332Z,114.00
2023-02-07T19:02:06.879Z,111.80
2023-02-07T19:04:35.742Z,115.80
2023-02-07T19:07:06.532Z,139.80
2023-02-07T19:09:35.548Z,132.10
2023-02-07T19:12:05.629Z,113.50
2023-02-07T19:14:35.880Z,96.80
2023-02-07T19:17:05.291Z,93.80
2023-02-07T19:19:35.160Z,100.90
2023-02-07T19:24:32.782Z,122.00
2023-02-07T19:27:01.741Z,122.70
2023-02-07T19:29:30.860Z,108.80
2023-02-07T19:32:03.724Z,115.50
2023-02-07T19:34:32.989Z,97.30
2023-02-07T19:37:02.820Z,106.80
2023-02-07T19:39:31.816Z,125.40
2023-02-07T19:42:03.198Z,105.40
2023-02-07T19:44:32.003Z,73.60
2023-02-07T19:47:00.962Z,69.10
2023-02-07T19:49:30.267Z,82.00
2023-02-07T19:51:58.963Z,83.00
2023-02-07T19:54:28.356Z,80.20
2023-02-07T19:56:57.485Z,80.70
2023-02-07T19:59:26.188Z,81.70
2023-02-07T20:01:56.300Z,91.50
2023-02-07T20:04:27.891Z,69.00
2023-02-07T20:06:57.630Z,52.80
2023-02-07T20:09:26.192Z,68.80
2023-02-07T20:11:55.386Z,61.90
2023-02-07T20:14:25.021Z,57.50
2023-02-07T20:16:53.678Z,54.90
2023-02-07T20:19:22.910Z,71.40
2023-02-07T20:21:51.901Z,64.90
2023-02-07T20:24:21.014Z,66.30
2023-02-07T20:26:52.867Z,72.50
2023-02-07T20:29:23.482Z,70.90
2023-02-07T20:31:53.152Z,47.60
2023-02-07T20:34:22.093Z,52.90
2023-02-07T20:36:52.643Z,67.10
2023-02-07T20:39:23.804Z,73.80
2023-02-07T20:41:52.877Z,104.90
2023-02-07T20:44:26.880Z,101.80
2023-02-07T20:46:57.906Z,91.50
2023-02-07T20:49:29.622Z,85.50
2023-02-07T20:51:59.598Z,105.00
2023-02-07T20:54:29.776Z,95.10
2023-02-07T20:56:58.835Z,139.60
2023-02-07T20:59:30.358Z,120.00
2023-02-07T21:02:00.176Z,111.90
2023-02-07T21:04:29.889Z,84.10
2023-02-07T21:06:58.699Z,79.30
2023-02-07T21:09:28.085Z,44.40
2023-02-07T21:11:58.464Z,48.80
2023-02-07T21:14:31.239Z,35.20
2023-02-07T21:17:06.527Z,42.00
2023-02-07T21:19:37.056Z,44.00
2023-02-07T21:22:07.169Z,53.10
2023-02-07T21:24:36.136Z,49.30
2023-02-07T21:27:05.986Z,42.90
2023-02-07T21:29:36.675Z,43.20
2023-02-07T21:32:05.619Z,47.00
2023-02-07T21:34:34.621Z,51.10
2023-02-07T21:37:03.472Z,46.90
2023-02-07T21:39:32.469Z,46.50
2023-02-07T21:42:01.575Z,29.30
2023-02-07T21:44:30.261Z,39.20
2023-02-07T21:46:59.085Z,43.60
2023-02-07T21:49:27.830Z,51.10
2023-02-07T21:51:56.802Z,42.40
2023-02-07T21:54:25.713Z,35.00
2023-02-07T21:56:54.821Z,33.60
2023-02-07T21:59:23.856Z,30.90
2023-02-07T22:01:55.581Z,40.10
2023-02-07T22:04:24.290Z,31.90
2023-02-07T22:06:53.032Z,22.90
2023-02-07T22:09:24.023Z,24.90
2023-02-07T22:11:54.769Z,28.10
2023-02-07T22:14:26.392Z,25.50
2023-02-07T22:16:55.492Z,29.70
2023-02-07T22:19:27.336Z,23.30
2023-02-07T22:21:56.916Z,33.20
2023-02-07T22:24:25.493Z,49.20
2023-02-07T22:26:54.454Z,26.90
2023-02-07T22:29:23.405Z,23.10
2023-02-07T22:31:52.076Z,25.00
2023-02-07T22:34:20.958Z,31.00
2023-02-07T22:36:50.224Z,25.70
2023-02-07T22:39:19.411Z,27.10
2023-02-07T22:41:48.177Z,33.30
2023-02-07T22:44:17.507Z,36.60
2023-02-07T22:46:46.143Z,37.10
2023-02-07T22:49:14.725Z,32.10
2023-02-07T22:51:46.640Z,30.10
2023-02-07T22:54:18.015Z,31.40
2023-02-07T22:56:47.585Z,28.20
2023-02-07T22:59:16.274Z,29.40
2023-02-07T23:01:45.752Z,30.90
2023-02-07T23:04:17.998Z,29.70
2023-02-07T23:06:47.323Z,29.70
2023-02-07T23:09:16.825Z,30.00
2023-02-07T23:11:45.957Z,23.20
2023-02-07T23:14:16.632Z,28.40
2023-02-07T23:16:46.031Z,27.90
2023-02-07T23:19:17.373Z,26.60
2023-02-07T23:21:46.155Z,26.20
2023-02-07T23:24:15.381Z,27.10
2023-02-07T23:26:44.368Z,29.70
2023-02-07T23:29:13.031Z,26.70
2023-02-07T23:31:42.356Z,27.80
2023-02-07T23:34:11.565Z,18.60
2023-02-07T23:36:40.397Z,25.10
2023-02-07T23:39:10.148Z,25.00
2023-02-07T23:41:39.062Z,20.70
2023-02-07T23:44:07.919Z,28.40
2023-02-07T23:46:37.481Z,29.60
2023-02-07T23:49:06.964Z,26.60
2023-02-07T23:51:36.427Z,27.50
2023-02-07T23:54:05.374Z,24.90
2023-02-07T23:56:34.433Z,26.30
2023-02-07T23:59:03.058Z,22.30
